Time;durP1;ratioP1;P1;durP2;ratioP2;P2;SDS_P1;SDS_P2;PMS_P1;PMS_P2;Temp;Humidity;BMP_temperature;BMP_pressure;BME280_temperature;BME280_humidity;BME280_pressure;Samples;Min_cycle;Max_cycle;Signal;HPM_P1;HPM_P2
2023/12/20 00:01:52;;;;;;;1.73;1.00;;;;;;;6.08;100.00;98107.69;5095405;28;20200;-73
2023/12/20 00:04:18;;;;;;;1.20;1.10;;;;;;;6.12;100.00;98097.56;5095804;28;20659;-73
2023/12/20 00:06:44;;;;;;;1.50;1.00;;;;;;;6.11;100.00;98090.66;5095297;28;20693;-73
2023/12/20 00:09:11;;;;;;;1.00;0.90;;;;;;;6.16;100.00;98086.41;5095557;28;20277;-73
2023/12/20 00:11:37;;;;;;;0.80;0.80;;;;;;;6.15;100.00;98081.34;5096208;28;20208;-73
2023/12/20 00:14:03;;;;;;;1.10;1.03;;;;;;;6.20;100.00;98079.75;5095516;28;20200;-73
2023/12/20 00:16:31;;;;;;;1.20;1.10;;;;;;;6.17;100.00;98082.78;5095087;28;20221;-73
2023/12/20 00:18:58;;;;;;;1.30;1.20;;;;;;;6.22;100.00;98084.84;5095398;28;20206;-73
2023/12/20 00:21:24;;;;;;;1.67;1.20;;;;;;;6.12;100.00;98079.91;5095358;28;20203;-73
2023/12/20 00:23:50;;;;;;;0.80;0.80;;;;;;;6.12;100.00;98081.72;5095354;28;20204;-73
2023/12/20 00:26:17;;;;;;;0.77;0.77;;;;;;;6.08;100.00;98076.00;5095272;28;20200;-73
2023/12/20 00:28:43;;;;;;;1.27;0.80;;;;;;;6.05;100.00;98070.28;5095183;28;20210;-73
2023/12/20 00:31:10;;;;;;;0.80;0.80;;;;;;;5.99;100.00;98071.03;5094840;28;20671;-73
2023/12/20 00:33:36;;;;;;;1.50;1.10;;;;;;;5.92;100.00;98078.91;5094574;28;20208;-73
2023/12/20 00:36:02;;;;;;;0.90;0.90;;;;;;;5.92;100.00;98073.63;5094811;28;20215;-73
2023/12/20 00:38:29;;;;;;;2.07;1.00;;;;;;;5.91;100.00;98066.72;5094620;28;20671;-73
2023/12/20 00:40:56;;;;;;;0.80;0.80;;;;;;;5.91;100.00;98072.00;5094798;28;20325;-73
2023/12/20 00:43:22;;;;;;;2.03;1.10;;;;;;;5.87;100.00;98068.09;5094793;28;20240;-73
2023/12/20 00:45:48;;;;;;;1.53;0.90;;;;;;;5.90;100.00;98062.44;5094912;28;20211;-73
2023/12/20 00:48:15;;;;;;;1.20;1.03;;;;;;;5.84;100.00;98062.38;5094624;28;20222;-73
2023/12/20 00:50:41;;;;;;;1.63;0.97;;;;;;;5.91;100.00;98071.16;5094410;28;20239;-73
2023/12/20 00:53:07;;;;;;;1.17;1.07;;;;;;;5.85;100.00;98069.28;5094692;28;20200;-73
2023/12/20 00:55:37;;;;;;;1.10;1.00;;;;;;;5.83;100.00;98058.13;5094621;28;20199;-72
2023/12/20 00:58:03;;;;;;;1.37;1.27;;;;;;;5.84;100.00;98059.75;5094646;28;20597;-72
2023/12/20 01:00:29;;;;;;;0.80;0.80;;;;;;;5.82;100.00;98069.66;5094294;28;20706;-72
2023/12/20 01:02:56;;;;;;;0.90;0.90;;;;;;;5.76;100.00;98059.84;5094546;28;20207;-72
2023/12/20 01:05:23;;;;;;;2.00;1.00;;;;;;;5.78;100.00;98066.56;5094485;28;20208;-72
2023/12/20 01:07:50;;;;;;;1.10;1.00;;;;;;;5.72;100.00;98064.69;5094376;28;20200;-72
2023/12/20 01:10:17;;;;;;;1.30;0.90;;;;;;;5.68;100.00;98062.59;5094250;28;20223;-72
2023/12/20 01:12:44;;;;;;;1.73;1.20;;;;;;;5.61;100.00;98072.28;5094348;28;20204;-72
2023/12/20 01:15:11;;;;;;;1.33;1.20;;;;;;;5.55;100.00;98067.72;5094115;28;20204;-72
2023/12/20 01:17:37;;;;;;;1.20;1.00;;;;;;;5.55;100.00;98062.44;5094283;28;20224;-73
2023/12/20 01:20:04;;;;;;;2.77;1.10;;;;;;;5.52;100.00;98068.13;5094266;28;20220;-73
2023/12/20 01:22:31;;;;;;;2.17;1.10;;;;;;;5.50;100.00;98070.94;5094213;28;20208;-73
2023/12/20 01:24:57;;;;;;;2.60;1.27;;;;;;;5.48;100.00;98061.59;5094045;28;20207;-72
2023/12/20 01:27:24;;;;;;;1.47;1.20;;;;;;;5.57;100.00;98065.75;5094285;28;20226;-72
2023/12/20 01:29:50;;;;;;;1.47;1.10;;;;;;;5.58;100.00;98073.47;5094010;28;20234;-72
2023/12/20 01:32:16;;;;;;;1.00;1.00;;;;;;;5.50;100.00;98067.47;5094073;28;20199;-72
2023/12/20 01:34:43;;;;;;;1.10;1.00;;;;;;;5.50;100.00;98088.56;5094129;28;20209;-72
2023/12/20 01:37:09;;;;;;;1.30;1.10;;;;;;;5.48;100.00;98080.84;5093609;28;20582;-72
2023/12/20 01:39:35;;;;;;;1.97;1.10;;;;;;;5.45;100.00;98077.75;5093970;28;20579;-72
2023/12/20 01:42:02;;;;;;;1.00;1.00;;;;;;;5.46;100.00;98068.84;5093642;28;20671;-72
2023/12/20 01:44:28;;;;;;;1.53;1.20;;;;;;;5.42;100.00;98083.44;5093724;28;20208;-72
2023/12/20 01:46:55;;;;;;;2.00;1.20;;;;;;;5.41;100.00;98076.50;5093546;28;20677;-72
2023/12/20 01:49:22;;;;;;;0.90;0.90;;;;;;;5.39;100.00;98081.16;5093434;28;20235;-72
2023/12/20 01:51:49;;;;;;;1.70;1.10;;;;;;;5.36;100.00;98078.88;5093552;28;20204;-72
2023/12/20 01:54:15;;;;;;;1.27;1.17;;;;;;;5.32;100.00;98080.25;5093595;28;20210;-72
2023/12/20 01:56:43;;;;;;;1.53;1.00;;;;;;;5.32;100.00;98074.97;5093702;28;20234;-72
2023/12/20 01:59:10;;;;;;;1.20;1.10;;;;;;;5.30;100.00;98069.09;5093723;28;20310;-72
2023/12/20 02:01:36;;;;;;;1.40;1.30;;;;;;;5.28;100.00;98066.63;5092874;28;20211;-72
2023/12/20 02:04:03;;;;;;;1.37;1.07;;;;;;;5.24;100.00;98069.84;5093408;28;20210;-72
2023/12/20 02:06:31;;;;;;;1.43;1.07;;;;;;;5.22;100.00;98070.00;5093656;28;20560;-72
2023/12/20 02:08:58;;;;;;;3.43;1.40;;;;;;;5.20;100.00;98068.56;5093631;28;20208;-72
2023/12/20 02:11:26;;;;;;;2.27;1.10;;;;;;;5.17;100.00;98064.50;5093708;28;20245;-72
2023/12/20 02:13:52;;;;;;;1.10;1.10;;;;;;;5.17;100.00;98063.66;5093680;28;20208;-72
2023/12/20 02:16:19;;;;;;;2.03;1.10;;;;;;;5.18;100.00;98057.38;5093457;28;20245;-72
2023/12/20 02:18:45;;;;;;;1.23;1.13;;;;;;;5.16;100.00;98072.56;5093508;28;20207;-72
2023/12/20 02:21:12;;;;;;;1.40;1.30;;;;;;;5.16;100.00;98064.66;5093200;28;20211;-72
2023/12/20 02:23:38;;;;;;;1.33;1.10;;;;;;;5.12;100.00;98069.50;5093194;28;20289;-72
2023/12/20 02:26:06;;;;;;;1.50;1.40;;;;;;;5.10;100.00;98071.47;5093556;28;20565;-72
2023/12/20 02:28:33;;;;;;;1.70;1.40;;;;;;;5.11;100.00;98069.69;5093191;28;20675;-72
2023/12/20 02:30:59;;;;;;;1.47;1.30;;;;;;;5.10;100.00;98073.28;5093421;28;20226;-72
2023/12/20 02:33:25;;;;;;;1.40;1.30;;;;;;;5.12;100.00;98066.88;5093468;28;20200;-72
2023/12/20 02:35:52;;;;;;;1.40;1.30;;;;;;;5.09;100.00;98069.03;5093313;28;20211;-72
2023/12/20 02:38:19;;;;;;;1.40;1.30;;;;;;;5.12;100.00;98072.13;5093074;28;20574;-72
2023/12/20 02:40:45;;;;;;;1.77;1.60;;;;;;;5.13;100.00;98075.56;5093321;28;20223;-72
2023/12/20 02:43:11;;;;;;;1.63;1.30;;;;;;;5.11;100.00;98075.75;5093415;28;20207;-72
2023/12/20 02:45:38;;;;;;;1.60;1.50;;;;;;;5.10;100.00;98073.28;5093299;28;20203;-72
2023/12/20 02:48:04;;;;;;;1.60;1.50;;;;;;;5.17;100.00;98071.56;5092996;28;20212;-72
2023/12/20 02:50:31;;;;;;;1.73;1.60;;;;;;;5.14;100.00;98074.56;5092884;28;20729;-72
2023/12/20 02:52:57;;;;;;;2.30;1.53;;;;;;;5.13;100.00;98067.66;5093271;28;20208;-72
2023/12/20 02:55:23;;;;;;;2.73;1.90;;;;;;;5.17;100.00;98071.56;5093833;28;20200;-72
2023/12/20 02:57:50;;;;;;;2.17;1.80;;;;;;;5.12;100.00;98068.66;5093083;28;20220;-72
2023/12/20 03:00:16;;;;;;;2.30;2.10;;;;;;;5.18;100.00;98073.19;5093173;28;20246;-72
2023/12/20 03:02:42;;;;;;;2.57;2.00;;;;;;;5.17;100.00;98079.47;5093137;28;20204;-72
2023/12/20 03:05:09;;;;;;;1.80;1.70;;;;;;;5.23;100.00;98076.09;5093100;28;20204;-72
2023/12/20 03:07:37;;;;;;;3.07;1.70;;;;;;;5.25;100.00;98068.84;5093126;28;20203;-72
2023/12/20 03:10:04;;;;;;;1.60;1.50;;;;;;;5.25;100.00;98074.91;5093036;28;20226;-72
2023/12/20 03:12:31;;;;;;;1.60;1.50;;;;;;;5.31;100.00;98078.63;5094136;28;20207;-72
2023/12/20 03:14:57;;;;;;;1.53;1.40;;;;;;;5.35;100.00;98083.34;5096669;28;20212;-72
2023/12/20 03:17:24;;;;;;;1.57;1.37;;;;;;;5.34;100.00;98076.41;5096610;28;20226;-72
2023/12/20 03:19:50;;;;;;;2.10;1.53;;;;;;;5.31;100.00;98083.88;5096530;28;20220;-72
2023/12/20 03:22:16;;;;;;;1.30;1.20;;;;;;;5.34;100.00;98081.69;5097274;28;20211;-72
2023/12/20 03:24:42;;;;;;;1.13;0.90;;;;;;;5.33;100.00;98084.53;5096406;28;20200;-72
2023/12/20 03:27:09;;;;;;;1.33;0.80;;;;;;;5.42;100.00;98092.13;5096354;28;20206;-72
2023/12/20 03:29:35;;;;;;;0.80;0.70;;;;;;;5.43;100.00;98082.41;5096261;28;20224;-72
2023/12/20 03:32:02;;;;;;;1.67;0.80;;;;;;;5.41;100.00;98084.41;5096334;28;20214;-72
2023/12/20 03:34:29;;;;;;;0.50;0.50;;;;;;;5.47;100.00;98091.59;5096232;28;20210;-72
2023/12/20 03:36:55;;;;;;;0.90;0.70;;;;;;;5.39;100.00;98089.06;5096127;28;20235;-72
2023/12/20 03:39:21;;;;;;;1.13;0.40;;;;;;;5.36;100.00;98097.34;5096083;28;20234;-72
2023/12/20 03:41:48;;;;;;;0.87;0.40;;;;;;;5.35;100.00;98096.53;5096030;28;20211;-72
2023/12/20 03:44:14;;;;;;;0.40;0.40;;;;;;;5.39;100.00;98097.78;5096013;28;20210;-72
2023/12/20 03:46:40;;;;;;;0.33;0.33;;;;;;;5.37;100.00;98102.44;5096020;28;20200;-72
2023/12/20 03:49:07;;;;;;;0.77;0.37;;;;;;;5.37;100.00;98098.97;5095420;28;20234;-72
2023/12/20 03:51:33;;;;;;;0.40;0.40;;;;;;;5.31;100.00;98102.34;5095937;28;20207;-72
2023/12/20 03:53:59;;;;;;;0.30;0.30;;;;;;;5.29;100.00;98099.09;5095878;28;20211;-72
2023/12/20 03:56:26;;;;;;;0.30;0.30;;;;;;;5.28;100.00;98105.34;5095836;28;20227;-72
2023/12/20 03:58:52;;;;;;;0.27;0.27;;;;;;;5.30;100.00;98106.00;5095708;28;20219;-72
2023/12/20 04:01:18;;;;;;;0.40;0.20;;;;;;;5.33;100.00;98108.25;5095783;28;20199;-72
2023/12/20 04:03:45;;;;;;;0.30;0.30;;;;;;;5.37;100.00;98101.59;5095528;28;20208;-72
2023/12/20 04:06:11;;;;;;;0.20;0.20;;;;;;;5.33;100.00;98103.00;5095266;28;20566;-73
2023/12/20 04:08:37;;;;;;;0.20;0.20;;;;;;;5.36;100.00;98110.50;5095857;28;20219;-72
2023/12/20 04:11:04;;;;;;;0.20;0.20;;;;;;;5.31;100.00;98107.63;5095926;28;20214;-72
2023/12/20 04:13:30;;;;;;;0.20;0.20;;;;;;;5.25;100.00;98116.28;5094954;28;20204;-72
2023/12/20 04:15:56;;;;;;;0.23;0.23;;;;;;;5.25;100.00;98108.38;5095332;28;20204;-72
2023/12/20 04:18:23;;;;;;;0.20;0.20;;;;;;;5.19;100.00;98096.72;5095638;28;20234;-72
2023/12/20 04:20:49;;;;;;;0.20;0.20;;;;;;;5.24;100.00;98106.72;5095104;28;20231;-72
2023/12/20 04:23:16;;;;;;;0.30;0.30;;;;;;;5.20;100.00;98116.00;5095140;28;20207;-72
2023/12/20 04:25:42;;;;;;;0.30;0.30;;;;;;;5.22;100.00;98120.09;5094473;28;20229;-72
2023/12/20 04:28:08;;;;;;;0.20;0.20;;;;;;;5.23;100.00;98120.88;5094852;28;20683;-72
2023/12/20 04:30:35;;;;;;;0.20;0.20;;;;;;;5.22;100.00;98133.28;5094698;28;20744;-72
2023/12/20 04:33:02;;;;;;;1.33;0.30;;;;;;;5.11;100.00;98130.28;5094528;28;20211;-72
2023/12/20 04:35:28;;;;;;;0.30;0.20;;;;;;;5.13;100.00;98130.91;5094745;28;20200;-72
2023/12/20 04:37:55;;;;;;;0.60;0.33;;;;;;;5.02;100.00;98115.56;5094777;28;20224;-72
2023/12/20 04:40:21;;;;;;;0.50;0.40;;;;;;;5.08;100.00;98120.09;5094617;28;20288;-72
2023/12/20 04:42:47;;;;;;;0.20;0.20;;;;;;;5.04;100.00;98137.25;5094679;28;20700;-72
2023/12/20 04:45:15;;;;;;;0.20;0.20;;;;;;;5.07;100.00;98135.06;5094473;28;20622;-72
2023/12/20 04:47:43;;;;;;;0.27;0.27;;;;;;;5.12;100.00;98147.72;5094625;28;20212;-72
2023/12/20 04:50:11;;;;;;;0.33;0.30;;;;;;;5.14;100.00;98146.53;5094672;28;20219;-72
2023/12/20 04:52:37;;;;;;;1.50;0.30;;;;;;;5.05;100.00;98141.53;5094789;28;20211;-72
2023/12/20 04:55:04;;;;;;;0.20;0.20;;;;;;;5.06;100.00;98140.56;5094441;28;20207;-72
2023/12/20 04:57:30;;;;;;;0.20;0.20;;;;;;;5.04;100.00;98148.63;5094202;28;20220;-72
2023/12/20 04:59:56;;;;;;;0.30;0.30;;;;;;;5.05;100.00;98145.00;5094264;28;20228;-72
2023/12/20 05:02:23;;;;;;;0.20;0.20;;;;;;;5.09;100.00;98145.44;5094376;28;20204;-72
2023/12/20 05:04:49;;;;;;;2.10;0.27;;;;;;;5.16;100.00;98151.63;5094162;28;20204;-72
2023/12/20 05:07:16;;;;;;;0.23;0.23;;;;;;;5.15;100.00;98148.16;5093923;28;20205;-72
2023/12/20 05:09:42;;;;;;;0.30;0.30;;;;;;;5.15;100.00;98156.06;5093739;28;20259;-72
2023/12/20 05:12:09;;;;;;;0.20;0.20;;;;;;;5.18;100.00;98160.16;5094125;28;20203;-72
2023/12/20 05:14:35;;;;;;;0.20;0.20;;;;;;;5.15;100.00;98165.81;5094231;28;20291;-72
2023/12/20 05:17:03;;;;;;;0.43;0.30;;;;;;;5.18;100.00;98157.53;5093908;28;20223;-72
2023/12/20 05:19:29;;;;;;;0.30;0.30;;;;;;;5.13;100.00;98163.34;5094029;28;20259;-73
2023/12/20 05:21:55;;;;;;;0.40;0.40;;;;;;;5.14;100.00;98164.97;5094274;28;20223;-72
2023/12/20 05:24:22;;;;;;;0.30;0.30;;;;;;;5.15;100.00;98169.25;5094369;28;20206;-72
2023/12/20 05:26:48;;;;;;;0.20;0.20;;;;;;;5.09;100.00;98158.63;5093984;28;20200;-72
2023/12/20 05:29:14;;;;;;;0.80;0.30;;;;;;;5.14;100.00;98161.50;5093969;28;20220;-72
2023/12/20 05:31:41;;;;;;;0.30;0.30;;;;;;;5.16;100.00;98164.81;5093724;28;20210;-72
2023/12/20 05:34:08;;;;;;;1.03;0.40;;;;;;;5.11;100.00;98169.81;5093558;28;20208;-72
2023/12/20 05:36:34;;;;;;;0.30;0.30;;;;;;;5.13;100.00;98188.88;5093631;28;20242;-72
2023/12/20 05:39:00;;;;;;;0.30;0.30;;;;;;;5.12;100.00;98184.59;5093204;28;20230;-72
2023/12/20 05:41:27;;;;;;;0.60;0.60;;;;;;;5.17;100.00;98182.25;5093374;28;20634;-72
2023/12/20 05:43:53;;;;;;;0.77;0.40;;;;;;;5.18;100.00;98189.16;5093261;28;20674;-72
2023/12/20 05:46:21;;;;;;;0.50;0.50;;;;;;;5.17;100.00;98195.41;5093149;28;20203;-72
2023/12/20 05:48:48;;;;;;;0.57;0.50;;;;;;;5.18;100.00;98199.69;5093014;28;20227;-72
2023/12/20 05:51:14;;;;;;;0.40;0.40;;;;;;;5.17;100.00;98193.63;5093482;28;20235;-72
2023/12/20 05:53:41;;;;;;;0.50;0.50;;;;;;;5.17;100.00;98206.78;5093842;28;20206;-72
2023/12/20 05:56:07;;;;;;;1.57;0.60;;;;;;;5.19;100.00;98211.84;5093382;28;20208;-72
2023/12/20 05:58:34;;;;;;;0.50;0.50;;;;;;;5.15;100.00;98213.25;5093018;28;20223;-72
2023/12/20 06:01:00;;;;;;;0.50;0.50;;;;;;;5.16;100.00;98215.66;5093413;28;20281;-73
2023/12/20 06:03:27;;;;;;;1.07;0.53;;;;;;;5.17;100.00;98219.97;5093424;28;20211;-73
2023/12/20 06:05:53;;;;;;;0.50;0.50;;;;;;;5.17;100.00;98222.59;5093176;28;20210;-72
2023/12/20 06:08:19;;;;;;;0.70;0.70;;;;;;;5.14;100.00;98227.41;5093668;28;20203;-73
2023/12/20 06:10:46;;;;;;;0.80;0.80;;;;;;;5.13;100.00;98225.75;5093403;28;20223;-73
2023/12/20 06:13:13;;;;;;;0.57;0.57;;;;;;;5.14;100.00;98225.59;5093354;28;20212;-73
2023/12/20 06:15:39;;;;;;;0.97;0.70;;;;;;;5.19;100.00;98225.03;5093051;28;20204;-72
2023/12/20 06:18:06;;;;;;;0.50;0.50;;;;;;;5.19;100.00;98230.31;5093160;28;20261;-73
2023/12/20 06:20:33;;;;;;;0.90;0.80;;;;;;;5.20;100.00;98231.97;5092982;28;20715;-72
2023/12/20 06:23:00;;;;;;;0.63;0.63;;;;;;;5.25;100.00;98225.13;5093205;28;20214;-73
2023/12/20 06:25:26;;;;;;;0.70;0.70;;;;;;;5.28;100.00;98234.50;5092968;28;20220;-72
2023/12/20 06:27:52;;;;;;;0.60;0.60;;;;;;;5.23;100.00;98221.88;5093208;28;20609;-72
2023/12/20 06:30:19;;;;;;;1.30;0.67;;;;;;;5.28;100.00;98219.50;5092786;28;20706;-72
2023/12/20 06:32:46;;;;;;;0.60;0.60;;;;;;;5.25;100.00;98219.06;5092714;28;20216;-72
2023/12/20 06:35:13;;;;;;;0.83;0.50;;;;;;;5.25;100.00;98214.59;5092722;28;20658;-72
2023/12/20 06:37:42;;;;;;;0.70;0.70;;;;;;;5.26;100.00;98220.69;5093607;28;20320;-72
2023/12/20 06:40:09;;;;;;;0.40;0.40;;;;;;;5.32;100.00;98227.84;5092477;28;20227;-72
2023/12/20 06:42:35;;;;;;;0.70;0.70;;;;;;;5.31;100.00;98234.97;5092581;28;20658;-72
2023/12/20 06:45:02;;;;;;;0.80;0.80;;;;;;;5.28;100.00;98237.13;5092427;28;20685;-72
2023/12/20 06:47:28;;;;;;;1.10;0.90;;;;;;;5.31;100.00;98236.78;5093518;28;20666;-72
2023/12/20 06:49:55;;;;;;;1.50;0.90;;;;;;;5.32;100.00;98238.41;5096502;28;20227;-72
2023/12/20 06:52:21;;;;;;;1.40;1.00;;;;;;;5.27;100.00;98243.41;5096657;28;20203;-72
2023/12/20 06:54:48;;;;;;;1.53;1.00;;;;;;;5.31;100.00;98242.03;5096456;28;20613;-72
2023/12/20 06:57:15;;;;;;;1.00;0.90;;;;;;;5.27;100.00;98253.94;5096259;28;20565;-72
2023/12/20 06:59:44;;;;;;;1.67;0.90;;;;;;;5.24;100.00;98255.13;5096343;28;20230;-72
2023/12/20 07:02:10;;;;;;;1.07;0.77;;;;;;;5.29;100.00;98259.88;5096397;28;20215;-72
2023/12/20 07:04:43;;;;;;;2.57;1.23;;;;;;;5.33;100.00;98264.59;5096404;28;20689;-72
2023/12/20 07:07:09;;;;;;;2.40;1.00;;;;;;;5.29;100.00;98265.94;5096093;28;20513;-72
2023/12/20 07:09:35;;;;;;;1.00;1.00;;;;;;;5.29;100.00;98262.50;5096370;28;20584;-72
2023/12/20 07:12:02;;;;;;;1.77;1.20;;;;;;;5.33;100.00;98267.22;5096403;28;20571;-72
2023/12/20 07:14:29;;;;;;;1.40;1.27;;;;;;;5.33;100.00;98271.69;5096400;28;20210;-72
2023/12/20 07:16:55;;;;;;;1.77;1.60;;;;;;;5.41;100.00;98277.69;5095968;28;20731;-72
2023/12/20 07:19:22;;;;;;;2.10;1.90;;;;;;;5.44;100.00;98287.06;5096092;28;20220;-72
2023/12/20 07:21:48;;;;;;;2.20;2.10;;;;;;;5.50;100.00;98287.16;5095729;28;20663;-72
2023/12/20 07:24:14;;;;;;;3.00;2.80;;;;;;;5.57;100.00;98288.03;5095814;28;20223;-72
2023/12/20 07:26:41;;;;;;;3.47;2.30;;;;;;;5.61;100.00;98299.06;5096030;28;20625;-71
2023/12/20 07:29:07;;;;;;;3.43;2.83;;;;;;;5.57;100.00;98301.22;5095846;28;20220;-72
2023/12/20 07:31:34;;;;;;;2.80;2.60;;;;;;;5.60;100.00;98308.78;5096160;28;20208;-72
2023/12/20 07:34:01;;;;;;;3.00;2.80;;;;;;;5.60;100.00;98314.06;5095987;28;20232;-72
2023/12/20 07:36:27;;;;;;;2.57;2.37;;;;;;;5.56;100.00;98325.97;5095617;28;20691;-72
2023/12/20 07:38:54;;;;;;;2.13;1.93;;;;;;;5.55;100.00;98319.06;5095428;28;20773;-72
2023/12/20 07:41:21;;;;;;;2.10;2.00;;;;;;;5.38;100.00;98319.41;5095774;28;20207;-72
2023/12/20 07:43:48;;;;;;;2.00;1.90;;;;;;;5.45;100.00;98330.88;5095712;28;20235;-71
2023/12/20 07:46:14;;;;;;;2.40;2.20;;;;;;;5.42;100.00;98328.63;5095668;28;20285;-72
2023/12/20 07:48:41;;;;;;;2.03;1.83;;;;;;;5.40;100.00;98320.03;5095152;28;20208;-72
2023/12/20 07:51:09;;;;;;;2.10;2.00;;;;;;;5.39;100.00;98329.75;5095379;28;20208;-72
2023/12/20 07:53:36;;;;;;;2.53;2.30;;;;;;;5.38;100.00;98319.41;5095532;28;20204;-72
2023/12/20 07:56:02;;;;;;;2.00;1.90;;;;;;;5.31;100.00;98323.75;5095354;28;20281;-72
2023/12/20 07:58:29;;;;;;;1.73;1.63;;;;;;;5.26;100.00;98324.31;5094168;28;20702;-72
2023/12/20 08:00:56;;;;;;;2.33;2.20;;;;;;;5.23;100.00;98316.75;5094601;28;20228;-72
2023/12/20 08:03:22;;;;;;;1.80;1.70;;;;;;;5.15;100.00;98322.09;5095308;28;20304;-72
2023/12/20 08:05:48;;;;;;;3.77;2.00;;;;;;;5.11;100.00;98328.72;5095307;28;20199;-72
2023/12/20 08:08:15;;;;;;;3.13;2.10;;;;;;;5.03;100.00;98327.97;5094965;28;20671;-72
2023/12/20 08:10:41;;;;;;;1.70;1.60;;;;;;;5.01;100.00;98327.31;5095150;28;20230;-72
2023/12/20 08:13:08;;;;;;;3.93;2.17;;;;;;;4.93;100.00;98338.75;5094898;28;20215;-72
2023/12/20 08:15:34;;;;;;;2.73;2.53;;;;;;;4.89;100.00;98336.66;5094891;28;20247;-72
2023/12/20 08:18:01;;;;;;;3.03;2.50;;;;;;;4.78;100.00;98342.31;5095025;28;20268;-72
2023/12/20 08:20:27;;;;;;;4.20;2.47;;;;;;;4.84;100.00;98350.34;5095023;28;20228;-72
2023/12/20 08:22:54;;;;;;;3.17;2.20;;;;;;;4.90;100.00;98352.28;5095006;28;20204;-72
2023/12/20 08:25:20;;;;;;;2.90;2.63;;;;;;;4.90;100.00;98360.19;5094693;28;20206;-72
2023/12/20 08:27:46;;;;;;;2.97;2.67;;;;;;;4.88;100.00;98356.09;5094790;28;20196;-72
2023/12/20 08:30:13;;;;;;;3.93;2.83;;;;;;;4.87;100.00;98357.06;5094861;28;20228;-72
2023/12/20 08:32:39;;;;;;;3.43;3.13;;;;;;;4.85;100.00;98346.72;5094843;28;20203;-72
2023/12/20 08:35:06;;;;;;;3.57;2.67;;;;;;;4.80;100.00;98356.94;5094333;28;20215;-72
2023/12/20 08:37:32;;;;;;;2.90;2.60;;;;;;;4.81;100.00;98360.41;5094585;28;20203;-72
2023/12/20 08:39:59;;;;;;;3.43;2.47;;;;;;;4.82;100.00;98380.47;5094563;28;20588;-72
2023/12/20 08:42:30;;;;;;;3.67;2.97;;;;;;;4.82;100.00;98376.03;5094204;28;20651;-72
2023/12/20 08:44:57;;;;;;;4.37;2.60;;;;;;;4.82;100.00;98383.09;5094183;28;20188;-72
2023/12/20 08:47:23;;;;;;;4.00;2.83;;;;;;;4.71;100.00;98381.69;5093954;28;20207;-72
2023/12/20 08:49:49;;;;;;;4.87;2.87;;;;;;;4.79;100.00;98384.28;5093830;28;20224;-72
2023/12/20 08:52:16;;;;;;;4.73;2.37;;;;;;;4.87;100.00;98388.66;5093926;28;20210;-72
2023/12/20 08:54:42;;;;;;;4.07;2.50;;;;;;;4.82;100.00;98385.75;5094334;28;20654;-72
2023/12/20 08:57:08;;;;;;;3.90;2.43;;;;;;;4.84;100.00;98389.84;5093808;28;20211;-72
2023/12/20 08:59:35;;;;;;;4.30;2.33;;;;;;;4.91;100.00;98390.78;5093832;28;20239;-72
2023/12/20 09:02:01;;;;;;;5.87;2.77;;;;;;;4.90;100.00;98376.00;5093908;28;20200;-72
2023/12/20 09:04:29;;;;;;;5.77;2.80;;;;;;;4.86;100.00;98363.34;5094190;28;20246;-72
2023/12/20 09:06:55;;;;;;;3.53;2.20;;;;;;;4.89;100.00;98374.34;5094034;28;20255;-72
2023/12/20 09:09:21;;;;;;;1.90;1.80;;;;;;;5.04;100.00;98374.41;5093963;28;20585;-72
2023/12/20 09:11:50;;;;;;;2.20;2.00;;;;;;;5.17;100.00;98379.91;5093415;28;20331;-72
2023/12/20 09:14:16;;;;;;;2.53;2.33;;;;;;;5.27;100.00;98391.00;5093706;28;20204;-72
2023/12/20 09:16:42;;;;;;;2.60;2.40;;;;;;;5.23;100.00;98385.28;5093919;28;20208;-72
2023/12/20 09:19:09;;;;;;;2.90;2.10;;;;;;;5.24;100.00;98383.47;5093312;28;20243;-72
2023/12/20 09:21:35;;;;;;;4.00;2.23;;;;;;;5.34;100.00;98371.66;5093599;28;20261;-72
2023/12/20 09:24:01;;;;;;;2.63;2.00;;;;;;;5.32;100.00;98373.66;5093313;28;20204;-72
2023/12/20 09:26:28;;;;;;;2.87;2.17;;;;;;;5.31;100.00;98377.31;5093329;28;20576;-73
2023/12/20 09:28:54;;;;;;;2.83;2.13;;;;;;;5.41;100.00;98384.94;5093683;28;20200;-72
2023/12/20 09:31:21;;;;;;;2.03;1.80;;;;;;;5.41;100.00;98385.78;5093533;28;20567;-72
2023/12/20 09:33:47;;;;;;;2.73;2.00;;;;;;;5.46;100.00;98387.88;5093713;28;20211;-73
2023/12/20 09:36:13;;;;;;;4.57;2.10;;;;;;;5.48;100.00;98383.25;5093614;28;20282;-73
2023/12/20 09:38:40;;;;;;;3.63;1.70;;;;;;;5.57;100.00;98395.38;5093596;28;20220;-73
2023/12/20 09:41:07;;;;;;;3.87;1.50;;;;;;;5.55;100.00;98397.34;5093013;28;20690;-74
2023/12/20 09:43:39;;;;;;;3.20;1.53;;;;;;;5.57;100.00;98404.06;5093549;28;20247;-72
2023/12/20 09:46:07;;;;;;;2.10;1.50;;;;;;;5.61;100.00;98399.28;5093734;28;20606;-72
2023/12/20 09:48:34;;;;;;;2.90;1.53;;;;;;;5.72;100.00;98406.75;5093421;28;20208;-73
2023/12/20 09:51:00;;;;;;;2.40;1.50;;;;;;;5.76;100.00;98402.75;5093124;28;20232;-72
2023/12/20 09:53:29;;;;;;;4.83;1.40;;;;;;;5.74;100.00;98405.56;5093569;28;20203;-72
2023/12/20 09:56:00;;;;;;;3.77;1.20;;;;;;;5.80;100.00;98415.47;5093497;28;20212;-72
2023/12/20 09:58:26;;;;;;;2.00;1.10;;;;;;;5.78;100.00;98408.66;5093641;28;20211;-73
2023/12/20 10:00:54;;;;;;;3.30;1.43;;;;;;;5.88;100.00;98414.56;5092988;28;20779;-73
2023/12/20 10:03:26;;;;;;;4.40;1.20;;;;;;;5.92;100.00;98414.00;5093405;28;20206;-73
2023/12/20 10:05:57;;;;;;;2.30;1.20;;;;;;;5.91;100.00;98412.34;5093561;28;20189;-72
2023/12/20 10:08:24;;;;;;;2.10;1.40;;;;;;;6.04;100.00;98411.72;5093260;28;20187;-72
2023/12/20 10:10:51;;;;;;;3.23;1.30;;;;;;;6.20;100.00;98422.91;5093095;28;20227;-73
2023/12/20 10:13:17;;;;;;;5.93;1.13;;;;;;;6.25;100.00;98419.75;5092903;28;20216;-72
2023/12/20 10:15:44;;;;;;;4.33;1.30;;;;;;;6.25;100.00;98409.97;5092772;28;20208;-72
2023/12/20 10:18:11;;;;;;;3.10;1.47;;;;;;;6.31;100.00;98411.09;5092960;28;20224;-73
2023/12/20 10:20:37;;;;;;;3.77;1.23;;;;;;;6.21;100.00;98411.38;5092777;28;20718;-72
2023/12/20 10:23:04;;;;;;;7.40;1.47;;;;;;;6.09;100.00;98406.72;5095063;28;20257;-72
2023/12/20 10:25:31;;;;;;;4.70;1.00;;;;;;;5.97;100.00;98400.28;5096882;28;20203;-72
2023/12/20 10:28:19;;;;;;;5.00;1.00;;;;;;;5.93;100.00;98399.00;5096804;28;20295;-72
2023/12/20 10:30:45;;;;;;;4.40;1.20;;;;;;;5.99;100.00;98393.81;5097241;28;20318;-73
2023/12/20 10:33:12;;;;;;;7.73;1.60;;;;;;;6.04;100.00;98386.16;5097217;28;20214;-72
2023/12/20 10:35:39;;;;;;;4.00;1.30;;;;;;;6.04;100.00;98387.97;5096620;28;20688;-72
2023/12/20 10:38:07;;;;;;;5.40;1.23;;;;;;;6.11;100.00;98380.97;5096870;28;20212;-72
2023/12/20 10:40:37;;;;;;;3.87;1.30;;;;;;;6.07;100.00;98396.34;5096853;28;20732;-72
2023/12/20 10:43:04;;;;;;;6.73;1.70;;;;;;;6.04;100.00;98387.97;5097035;28;20207;-72
2023/12/20 10:45:31;;;;;;;5.00;1.30;;;;;;;5.96;100.00;98395.97;5096153;28;20207;-72
2023/12/20 10:47:59;;;;;;;3.20;1.27;;;;;;;5.89;100.00;98390.59;5097201;28;20675;-72
2023/12/20 10:50:27;;;;;;;3.27;1.30;;;;;;;5.83;100.00;98390.53;5097025;28;20224;-72
2023/12/20 10:52:55;;;;;;;7.87;1.40;;;;;;;5.74;100.00;98389.75;5096658;28;20207;-75
2023/12/20 10:55:22;;;;;;;5.00;1.57;;;;;;;5.71;100.00;98378.75;5096739;28;20253;-76
2023/12/20 10:57:51;;;;;;;7.20;1.50;;;;;;;5.63;100.00;98386.72;5096322;28;20253;-75
2023/12/20 11:00:22;;;;;;;2.77;1.17;;;;;;;5.64;100.00;98386.56;5096448;28;20239;-75
2023/12/20 11:02:51;;;;;;;2.77;1.00;;;;;;;5.60;100.00;98373.88;5096820;28;20548;-75
2023/12/20 11:05:23;;;;;;;4.07;1.27;;;;;;;5.50;100.00;98375.97;5096189;28;20207;-75
2023/12/20 11:07:59;;;;;;;5.37;1.30;;;;;;;5.60;100.00;98379.16;5096517;28;20575;-75
2023/12/20 11:11:03;;;;;;;3.37;1.40;;;;;;;5.53;100.00;98375.63;5096289;28;20644;-75
2023/12/20 11:13:35;;;;;;;3.63;1.67;;;;;;;5.70;100.00;98385.03;5096503;28;20187;-75
2023/12/20 11:16:02;;;;;;;3.20;1.10;;;;;;;5.80;100.00;98375.03;5096546;28;20198;-75
2023/12/20 11:18:30;;;;;;;4.17;1.20;;;;;;;5.98;100.00;98388.72;5096267;28;20220;-75
2023/12/20 11:21:02;;;;;;;3.43;1.27;;;;;;;5.93;100.00;98378.69;5096396;28;20224;-72
2023/12/20 11:23:30;;;;;;;5.13;1.50;;;;;;;5.88;100.00;98370.50;5096338;28;20187;-73
2023/12/20 11:25:58;;;;;;;6.43;1.60;;;;;;;5.94;100.00;98366.31;5096129;28;20218;-72
2023/12/20 11:28:26;;;;;;;4.67;1.50;;;;;;;5.92;100.00;98361.22;5095830;28;20679;-72
2023/12/20 11:30:59;;;;;;;4.10;1.40;;;;;;;5.92;100.00;98370.97;5095719;28;20543;-72
2023/12/20 11:33:48;;;;;;;5.10;1.30;;;;;;;5.88;100.00;98374.97;5095797;28;20309;-72